Estación Meteorológica Peña el Pijo (Robertgarden) [ 07/20/18 16:40:44 CEST ]

Fecha Hora Presion(HPa) Temp (°C) Humedad % Rocio (°C) Viento ( m/s) Direccion Lluvia 1Hora(mm) Lluvia 24H(mm) LLuvia Total(mm)
2018-Jan-23 01:01:38 1016.700 4.1 56 -4.0         62.16
2018-Jan-23 02:04:11 1016.200 3.1 60 -3.9         62.16
2018-Jan-23 03:01:43 1016.500 1.9 61 -4.8         62.16
2018-Jan-23 04:01:47 1016.200 1.3 64 -4.8         62.16
2018-Jan-23 05:01:35 1015.900 0.8 67 -4.7         62.16
2018-Jan-23 06:01:34 1015.700 0.4 69 -4.6         62.16
2018-Jan-23 07:01:38 1016.200 -0.6 69 -5.6         62.16
2018-Jan-23 08:01:29 1016.500 -0.7 71 -5.3         62.16
2018-Jan-23 09:01:47 1016.900 -0.7 73 -5.0         62.16
2018-Jan-23 10:01:40 1017.100 6.1 71 1.3         62.16
2018-Jan-23 11:01:36 1017.300 13.6 43 1.2         62.16
2018-Jan-23 12:01:38 1016.800 17.9 29 -0.4         62.16
2018-Jan-23 13:01:45 1016.000 19.6 24 -1.8         62.16
2018-Jan-23 14:01:49 1015.000 22.9 21 -0.6         62.16
2018-Jan-23 15:01:42 1014.600 22.6 19 -2.4         62.16
2018-Jan-23 16:01:43 1014.700 21.1 21 -2.2 1.3 SE     62.16
2018-Jan-23 17:01:35 1015.100 19.8 23 -2.1         62.16
2018-Jan-23 18:01:47 1015.800 15.4 31 -1.7         62.16
2018-Jan-23 19:01:49 1016.500 10.9 41 -1.9         62.16
2018-Jan-23 20:01:42 1017.100 7.8 47 -2.9         62.16
2018-Jan-23 21:01:43 1017.200 5.6 53 -3.3         62.16
2018-Jan-23 22:02:06 1017.500 4.7 58 -2.9         62.16
2018-Jan-23 23:01:54 1017.600 2.9 62 -3.7         62.16

Temperatura Máxima:22°    Temperatura Mínima:
Presión Máxima:1017.600 Hpa    Presión Mínima:1014.600 Hpa


Volver